sensor_id;sensor_type;location;lat;lon;timestamp;temperature;humidity
6540;DHT22;50344;51.142;16.892;2023-09-08T00:01:21;26.60;51.50
6540;DHT22;50344;51.142;16.892;2023-09-08T00:03:46;26.60;51.50
6540;DHT22;50344;51.142;16.892;2023-09-08T00:06:12;26.60;51.50
6540;DHT22;50344;51.142;16.892;2023-09-08T00:08:37;26.60;51.60
6540;DHT22;50344;51.142;16.892;2023-09-08T00:11:03;26.50;51.40
6540;DHT22;50344;51.142;16.892;2023-09-08T00:13:30;26.50;51.50
6540;DHT22;50344;51.142;16.892;2023-09-08T00:15:56;26.50;51.40
6540;DHT22;50344;51.142;16.892;2023-09-08T00:18:21;26.60;51.40
6540;DHT22;50344;51.142;16.892;2023-09-08T00:20:47;26.60;51.50
6540;DHT22;50344;51.142;16.892;2023-09-08T00:23:12;26.50;51.50
6540;DHT22;50344;51.142;16.892;2023-09-08T00:25:38;26.50;51.40
6540;DHT22;50344;51.142;16.892;2023-09-08T00:28:03;26.50;51.40
6540;DHT22;50344;51.142;16.892;2023-09-08T00:30:29;26.50;51.20
6540;DHT22;50344;51.142;16.892;2023-09-08T00:32:55;26.50;51.40
6540;DHT22;50344;51.142;16.892;2023-09-08T00:35:20;26.50;51.20
6540;DHT22;50344;51.142;16.892;2023-09-08T00:37:46;26.50;51.40
6540;DHT22;50344;51.142;16.892;2023-09-08T00:40:11;26.50;51.40
6540;DHT22;50344;51.142;16.892;2023-09-08T00:42:37;26.50;51.50
6540;DHT22;50344;51.142;16.892;2023-09-08T00:45:03;26.50;51.30
6540;DHT22;50344;51.142;16.892;2023-09-08T00:47:29;26.50;51.30
6540;DHT22;50344;51.142;16.892;2023-09-08T00:49:54;26.50;51.30
6540;DHT22;50344;51.142;16.892;2023-09-08T00:52:21;26.50;51.30
6540;DHT22;50344;51.142;16.892;2023-09-08T00:54:46;26.50;51.30
6540;DHT22;50344;51.142;16.892;2023-09-08T00:57:12;26.50;51.20
6540;DHT22;50344;51.142;16.892;2023-09-08T00:59:37;26.40;51.90
6540;DHT22;50344;51.142;16.892;2023-09-08T01:02:03;26.40;51.20
6540;DHT22;50344;51.142;16.892;2023-09-08T01:04:29;26.40;51.10
6540;DHT22;50344;51.142;16.892;2023-09-08T01:06:55;26.40;51.20
6540;DHT22;50344;51.142;16.892;2023-09-08T01:09:21;26.40;51.10
6540;DHT22;50344;51.142;16.892;2023-09-08T01:11:47;26.40;51.10
6540;DHT22;50344;51.142;16.892;2023-09-08T01:14:12;26.40;51.10
6540;DHT22;50344;51.142;16.892;2023-09-08T01:16:41;26.50;50.90
6540;DHT22;50344;51.142;16.892;2023-09-08T01:19:09;26.40;51.10
6540;DHT22;50344;51.142;16.892;2023-09-08T01:26:27;26.40;51.10
6540;DHT22;50344;51.142;16.892;2023-09-08T01:28:56;26.40;51.50
6540;DHT22;50344;51.142;16.892;2023-09-08T01:31:22;26.40;51.10
6540;DHT22;50344;51.142;16.892;2023-09-08T01:33:48;26.40;51.10
6540;DHT22;50344;51.142;16.892;2023-09-08T01:36:13;26.40;51.10
6540;DHT22;50344;51.142;16.892;2023-09-08T01:38:39;26.40;51.20
6540;DHT22;50344;51.142;16.892;2023-09-08T01:41:05;26.40;51.20
6540;DHT22;50344;51.142;16.892;2023-09-08T01:43:30;26.40;51.10
6540;DHT22;50344;51.142;16.892;2023-09-08T01:45:56;26.20;51.10
6540;DHT22;50344;51.142;16.892;2023-09-08T01:48:22;26.40;51.10
6540;DHT22;50344;51.142;16.892;2023-09-08T01:50:47;26.40;51.10
6540;DHT22;50344;51.142;16.892;2023-09-08T01:53:13;26.40;51.10
6540;DHT22;50344;51.142;16.892;2023-09-08T01:55:38;26.40;51.10
6540;DHT22;50344;51.142;16.892;2023-09-08T01:58:04;26.40;51.10
6540;DHT22;50344;51.142;16.892;2023-09-08T02:00:29;26.40;51.10
6540;DHT22;50344;51.142;16.892;2023-09-08T02:02:55;26.40;51.10
6540;DHT22;50344;51.142;16.892;2023-09-08T02:05:21;26.40;51.10
6540;DHT22;50344;51.142;16.892;2023-09-08T02:07:46;26.30;51.10
6540;DHT22;50344;51.142;16.892;2023-09-08T02:10:12;26.40;51.10
6540;DHT22;50344;51.142;16.892;2023-09-08T02:12:37;26.40;51.10
6540;DHT22;50344;51.142;16.892;2023-09-08T02:15:03;26.30;51.00
6540;DHT22;50344;51.142;16.892;2023-09-08T02:17:30;26.30;51.00
6540;DHT22;50344;51.142;16.892;2023-09-08T02:19:55;26.30;51.00
6540;DHT22;50344;51.142;16.892;2023-09-08T02:22:21;26.30;51.10
6540;DHT22;50344;51.142;16.892;2023-09-08T02:24:47;26.30;51.10
6540;DHT22;50344;51.142;16.892;2023-09-08T02:27:12;26.30;51.00
6540;DHT22;50344;51.142;16.892;2023-09-08T02:29:38;26.30;51.00
6540;DHT22;50344;51.142;16.892;2023-09-08T02:32:03;26.30;51.00
6540;DHT22;50344;51.142;16.892;2023-09-08T02:34:29;26.30;50.80
6540;DHT22;50344;51.142;16.892;2023-09-08T02:36:55;26.30;51.10
6540;DHT22;50344;51.142;16.892;2023-09-08T02:39:20;26.40;51.00
6540;DHT22;50344;51.142;16.892;2023-09-08T02:41:46;26.30;51.00
6540;DHT22;50344;51.142;16.892;2023-09-08T02:44:11;26.30;51.10
6540;DHT22;50344;51.142;16.892;2023-09-08T02:46:37;26.30;50.90
6540;DHT22;50344;51.142;16.892;2023-09-08T02:49:02;26.30;50.90
6540;DHT22;50344;51.142;16.892;2023-09-08T02:51:28;26.30;50.70
6540;DHT22;50344;51.142;16.892;2023-09-08T02:53:54;26.30;50.90
6540;DHT22;50344;51.142;16.892;2023-09-08T02:56:19;26.30;50.90
6540;DHT22;50344;51.142;16.892;2023-09-08T02:58:45;26.30;50.80
6540;DHT22;50344;51.142;16.892;2023-09-08T03:01:11;26.30;50.80
6540;DHT22;50344;51.142;16.892;2023-09-08T03:03:38;26.30;50.80
6540;DHT22;50344;51.142;16.892;2023-09-08T03:06:04;26.30;50.80
6540;DHT22;50344;51.142;16.892;2023-09-08T03:08:30;26.30;50.80
6540;DHT22;50344;51.142;16.892;2023-09-08T03:10:56;26.30;50.80
6540;DHT22;50344;51.142;16.892;2023-09-08T03:13:22;26.30;50.80
6540;DHT22;50344;51.142;16.892;2023-09-08T03:15:48;26.20;50.70
6540;DHT22;50344;51.142;16.892;2023-09-08T03:18:13;26.30;50.80
6540;DHT22;50344;51.142;16.892;2023-09-08T03:20:39;26.30;50.80
6540;DHT22;50344;51.142;16.892;2023-09-08T03:23:05;26.30;50.90
6540;DHT22;50344;51.142;16.892;2023-09-08T03:25:31;26.20;50.80
6540;DHT22;50344;51.142;16.892;2023-09-08T03:27:56;26.30;50.70
6540;DHT22;50344;51.142;16.892;2023-09-08T03:30:22;26.30;50.80
6540;DHT22;50344;51.142;16.892;2023-09-08T03:32:48;26.20;50.80
6540;DHT22;50344;51.142;16.892;2023-09-08T03:35:13;26.20;50.70
6540;DHT22;50344;51.142;16.892;2023-09-08T03:37:39;26.20;50.70
6540;DHT22;50344;51.142;16.892;2023-09-08T03:40:05;26.30;50.60
6540;DHT22;50344;51.142;16.892;2023-09-08T03:42:31;26.20;50.40
6540;DHT22;50344;51.142;16.892;2023-09-08T03:44:57;26.20;50.60
6540;DHT22;50344;51.142;16.892;2023-09-08T03:47:22;26.10;50.60
6540;DHT22;50344;51.142;16.892;2023-09-08T03:49:48;26.20;50.70
6540;DHT22;50344;51.142;16.892;2023-09-08T03:52:13;26.20;50.60
6540;DHT22;50344;51.142;16.892;2023-09-08T03:54:39;26.20;50.60
6540;DHT22;50344;51.142;16.892;2023-09-08T03:57:05;26.20;50.50
6540;DHT22;50344;51.142;16.892;2023-09-08T03:59:30;26.20;50.50
6540;DHT22;50344;51.142;16.892;2023-09-08T04:01:56;26.20;50.60
6540;DHT22;50344;51.142;16.892;2023-09-08T04:04:21;26.20;50.60
6540;DHT22;50344;51.142;16.892;2023-09-08T04:06:47;26.20;50.50
6540;DHT22;50344;51.142;16.892;2023-09-08T04:09:13;26.20;50.60
6540;DHT22;50344;51.142;16.892;2023-09-08T04:11:38;26.20;50.50
6540;DHT22;50344;51.142;16.892;2023-09-08T04:14:04;26.20;50.50
6540;DHT22;50344;51.142;16.892;2023-09-08T04:16:29;26.20;50.50
6540;DHT22;50344;51.142;16.892;2023-09-08T04:18:55;26.20;50.50
6540;DHT22;50344;51.142;16.892;2023-09-08T04:21:20;26.20;50.50
6540;DHT22;50344;51.142;16.892;2023-09-08T04:23:46;26.20;50.50
6540;DHT22;50344;51.142;16.892;2023-09-08T04:26:12;26.20;50.50
6540;DHT22;50344;51.142;16.892;2023-09-08T04:28:37;26.20;51.20
6540;DHT22;50344;51.142;16.892;2023-09-08T04:31:03;26.20;50.50
6540;DHT22;50344;51.142;16.892;2023-09-08T04:33:29;26.20;50.60
6540;DHT22;50344;51.142;16.892;2023-09-08T04:35:54;26.20;50.50
6540;DHT22;50344;51.142;16.892;2023-09-08T04:38:20;26.20;50.90
6540;DHT22;50344;51.142;16.892;2023-09-08T04:40:45;26.30;51.50
6540;DHT22;50344;51.142;16.892;2023-09-08T04:43:12;26.30;50.70
6540;DHT22;50344;51.142;16.892;2023-09-08T04:45:37;26.30;50.80
6540;DHT22;50344;51.142;16.892;2023-09-08T04:48:04;26.20;50.90
6540;DHT22;50344;51.142;16.892;2023-09-08T04:50:29;26.30;50.70
6540;DHT22;50344;51.142;16.892;2023-09-08T04:52:55;26.30;50.90
6540;DHT22;50344;51.142;16.892;2023-09-08T04:55:20;26.20;50.90
6540;DHT22;50344;51.142;16.892;2023-09-08T04:57:46;26.20;50.90
6540;DHT22;50344;51.142;16.892;2023-09-08T05:00:12;26.20;51.00
6540;DHT22;50344;51.142;16.892;2023-09-08T05:02:37;26.20;50.80
6540;DHT22;50344;51.142;16.892;2023-09-08T05:05:03;26.20;51.20
6540;DHT22;50344;51.142;16.892;2023-09-08T05:07:29;26.10;51.70
6540;DHT22;50344;51.142;16.892;2023-09-08T05:09:54;26.20;51.80
6540;DHT22;50344;51.142;16.892;2023-09-08T05:12:20;26.20;52.00
6540;DHT22;50344;51.142;16.892;2023-09-08T05:14:45;26.20;51.90
6540;DHT22;50344;51.142;16.892;2023-09-08T05:17:11;26.20;52.30
6540;DHT22;50344;51.142;16.892;2023-09-08T05:19:37;26.20;52.50
6540;DHT22;50344;51.142;16.892;2023-09-08T05:22:04;26.20;52.20
6540;DHT22;50344;51.142;16.892;2023-09-08T05:24:30;26.20;51.90
6540;DHT22;50344;51.142;16.892;2023-09-08T05:26:55;26.20;51.80
6540;DHT22;50344;51.142;16.892;2023-09-08T05:29:21;26.20;52.10
6540;DHT22;50344;51.142;16.892;2023-09-08T05:31:46;26.20;52.10
6540;DHT22;50344;51.142;16.892;2023-09-08T05:34:12;26.20;52.20
6540;DHT22;50344;51.142;16.892;2023-09-08T05:36:37;26.20;52.50
6540;DHT22;50344;51.142;16.892;2023-09-08T05:39:05;26.00;52.00
6540;DHT22;50344;51.142;16.892;2023-09-08T05:41:31;25.00;53.40
6540;DHT22;50344;51.142;16.892;2023-09-08T05:43:57;24.50;54.60
6540;DHT22;50344;51.142;16.892;2023-09-08T05:46:23;24.20;55.10
6540;DHT22;50344;51.142;16.892;2023-09-08T05:48:49;23.90;55.70
6540;DHT22;50344;51.142;16.892;2023-09-08T05:51:14;23.70;56.10
6540;DHT22;50344;51.142;16.892;2023-09-08T05:53:40;23.60;56.10
6540;DHT22;50344;51.142;16.892;2023-09-08T05:56:09;23.50;56.60
6540;DHT22;50344;51.142;16.892;2023-09-08T05:58:35;23.60;57.10
6540;DHT22;50344;51.142;16.892;2023-09-08T06:01:01;23.60;57.30
6540;DHT22;50344;51.142;16.892;2023-09-08T06:03:27;23.60;57.50
6540;DHT22;50344;51.142;16.892;2023-09-08T06:05:52;23.60;57.90
6540;DHT22;50344;51.142;16.892;2023-09-08T06:08:18;23.60;58.10
6540;DHT22;50344;51.142;16.892;2023-09-08T06:10:44;23.70;57.60
6540;DHT22;50344;51.142;16.892;2023-09-08T06:13:09;23.70;58.10
6540;DHT22;50344;51.142;16.892;2023-09-08T06:15:35;23.70;58.20
6540;DHT22;50344;51.142;16.892;2023-09-08T06:18:01;23.80;58.20
6540;DHT22;50344;51.142;16.892;2023-09-08T06:20:27;23.90;58.00
6540;DHT22;50344;51.142;16.892;2023-09-08T06:22:52;24.00;57.70
6540;DHT22;50344;51.142;16.892;2023-09-08T06:25:18;24.10;57.80
6540;DHT22;50344;51.142;16.892;2023-09-08T06:27:43;24.10;57.60
6540;DHT22;50344;51.142;16.892;2023-09-08T06:30:09;24.00;58.00
6540;DHT22;50344;51.142;16.892;2023-09-08T06:32:35;24.10;57.50
6540;DHT22;50344;51.142;16.892;2023-09-08T06:35:01;24.10;58.10
6540;DHT22;50344;51.142;16.892;2023-09-08T06:37:26;24.10;57.70
6540;DHT22;50344;51.142;16.892;2023-09-08T06:39:54;24.10;58.00
6540;DHT22;50344;51.142;16.892;2023-09-08T06:42:19;24.10;58.00
6540;DHT22;50344;51.142;16.892;2023-09-08T06:44:45;24.20;57.90
6540;DHT22;50344;51.142;16.892;2023-09-08T06:47:10;24.20;57.60
6540;DHT22;50344;51.142;16.892;2023-09-08T06:49:36;24.20;58.50
6540;DHT22;50344;51.142;16.892;2023-09-08T06:52:02;24.20;58.00
6540;DHT22;50344;51.142;16.892;2023-09-08T06:54:27;24.20;57.60
6540;DHT22;50344;51.142;16.892;2023-09-08T06:56:53;24.40;57.70
6540;DHT22;50344;51.142;16.892;2023-09-08T06:59:18;24.40;57.80
6540;DHT22;50344;51.142;16.892;2023-09-08T07:01:44;24.40;58.00
6540;DHT22;50344;51.142;16.892;2023-09-08T07:04:10;24.50;57.70
6540;DHT22;50344;51.142;16.892;2023-09-08T07:06:36;24.50;57.40
6540;DHT22;50344;51.142;16.892;2023-09-08T07:09:03;24.60;57.10
6540;DHT22;50344;51.142;16.892;2023-09-08T07:11:29;24.60;57.00
6540;DHT22;50344;51.142;16.892;2023-09-08T07:13:55;24.60;57.00
6540;DHT22;50344;51.142;16.892;2023-09-08T07:16:21;24.60;56.90
6540;DHT22;50344;51.142;16.892;2023-09-08T07:18:47;24.50;57.20
6540;DHT22;50344;51.142;16.892;2023-09-08T07:21:12;24.70;57.00
6540;DHT22;50344;51.142;16.892;2023-09-08T07:23:38;24.70;56.90
6540;DHT22;50344;51.142;16.892;2023-09-08T07:26:04;24.80;56.90
6540;DHT22;50344;51.142;16.892;2023-09-08T07:28:29;24.90;57.10
6540;DHT22;50344;51.142;16.892;2023-09-08T07:31:00;25.00;56.70
6540;DHT22;50344;51.142;16.892;2023-09-08T07:33:26;24.90;56.70
6540;DHT22;50344;51.142;16.892;2023-09-08T07:35:51;24.90;56.80
6540;DHT22;50344;51.142;16.892;2023-09-08T07:38:17;24.90;57.00
6540;DHT22;50344;51.142;16.892;2023-09-08T07:40:42;25.00;56.80
6540;DHT22;50344;51.142;16.892;2023-09-08T07:43:08;25.00;56.60
6540;DHT22;50344;51.142;16.892;2023-09-08T07:45:34;25.10;56.40
6540;DHT22;50344;51.142;16.892;2023-09-08T07:47:59;25.10;56.60
6540;DHT22;50344;51.142;16.892;2023-09-08T07:50:26;25.10;56.30
6540;DHT22;50344;51.142;16.892;2023-09-08T07:52:52;25.20;56.90
6540;DHT22;50344;51.142;16.892;2023-09-08T07:55:18;25.40;56.40
6540;DHT22;50344;51.142;16.892;2023-09-08T07:57:44;25.20;56.20
6540;DHT22;50344;51.142;16.892;2023-09-08T08:00:11;25.30;56.30
6540;DHT22;50344;51.142;16.892;2023-09-08T08:02:45;25.40;56.10
6540;DHT22;50344;51.142;16.892;2023-09-08T08:05:11;25.40;55.20
6540;DHT22;50344;51.142;16.892;2023-09-08T08:07:38;25.50;55.60
6540;DHT22;50344;51.142;16.892;2023-09-08T08:10:04;25.60;55.70
6540;DHT22;50344;51.142;16.892;2023-09-08T08:12:30;25.40;55.60
6540;DHT22;50344;51.142;16.892;2023-09-08T08:14:56;25.50;55.70
6540;DHT22;50344;51.142;16.892;2023-09-08T08:17:21;25.60;55.50
6540;DHT22;50344;51.142;16.892;2023-09-08T08:19:47;25.60;55.50
6540;DHT22;50344;51.142;16.892;2023-09-08T08:22:12;25.70;55.60
6540;DHT22;50344;51.142;16.892;2023-09-08T08:24:38;25.70;55.50
6540;DHT22;50344;51.142;16.892;2023-09-08T08:27:04;25.80;55.70
6540;DHT22;50344;51.142;16.892;2023-09-08T08:29:29;25.80;55.70
6540;DHT22;50344;51.142;16.892;2023-09-08T08:31:55;25.80;55.60
6540;DHT22;50344;51.142;16.892;2023-09-08T08:34:20;25.90;55.90
6540;DHT22;50344;51.142;16.892;2023-09-08T08:36:46;25.90;55.70
6540;DHT22;50344;51.142;16.892;2023-09-08T08:39:12;25.90;55.60
6540;DHT22;50344;51.142;16.892;2023-09-08T08:41:37;25.90;55.60
6540;DHT22;50344;51.142;16.892;2023-09-08T08:44:08;26.00;55.60
6540;DHT22;50344;51.142;16.892;2023-09-08T08:46:34;26.10;55.20
6540;DHT22;50344;51.142;16.892;2023-09-08T08:49:01;26.10;55.40
6540;DHT22;50344;51.142;16.892;2023-09-08T08:51:28;26.20;55.20
6540;DHT22;50344;51.142;16.892;2023-09-08T08:53:54;26.20;55.10
6540;DHT22;50344;51.142;16.892;2023-09-08T08:56:20;26.40;55.00
6540;DHT22;50344;51.142;16.892;2023-09-08T08:58:46;26.30;54.80
6540;DHT22;50344;51.142;16.892;2023-09-08T09:01:11;26.30;54.80
6540;DHT22;50344;51.142;16.892;2023-09-08T09:03:38;26.30;54.60
6540;DHT22;50344;51.142;16.892;2023-09-08T09:06:05;26.40;54.60
6540;DHT22;50344;51.142;16.892;2023-09-08T09:08:31;26.40;54.70
6540;DHT22;50344;51.142;16.892;2023-09-08T09:10:57;26.40;54.50
6540;DHT22;50344;51.142;16.892;2023-09-08T09:13:23;26.40;54.50
6540;DHT22;50344;51.142;16.892;2023-09-08T09:15:49;26.50;54.50
6540;DHT22;50344;51.142;16.892;2023-09-08T09:18:15;26.50;54.20
6540;DHT22;50344;51.142;16.892;2023-09-08T09:20:41;26.50;54.30
6540;DHT22;50344;51.142;16.892;2023-09-08T09:23:06;26.60;54.50
6540;DHT22;50344;51.142;16.892;2023-09-08T09:25:32;26.60;54.40
6540;DHT22;50344;51.142;16.892;2023-09-08T09:27:59;26.60;54.30
6540;DHT22;50344;51.142;16.892;2023-09-08T09:30:24;26.80;54.40
6540;DHT22;50344;51.142;16.892;2023-09-08T09:35:44;26.70;53.70
6540;DHT22;50344;51.142;16.892;2023-09-08T09:38:10;26.80;53.90
6540;DHT22;50344;51.142;16.892;2023-09-08T09:40:36;26.80;54.30
6540;DHT22;50344;51.142;16.892;2023-09-08T09:43:02;26.80;54.30
6540;DHT22;50344;51.142;16.892;2023-09-08T09:45:30;26.80;54.20
6540;DHT22;50344;51.142;16.892;2023-09-08T09:47:55;26.80;54.20
6540;DHT22;50344;51.142;16.892;2023-09-08T09:50:28;26.80;53.90
6540;DHT22;50344;51.142;16.892;2023-09-08T09:52:57;26.90;53.30
6540;DHT22;50344;51.142;16.892;2023-09-08T09:55:25;26.90;53.60
6540;DHT22;50344;51.142;16.892;2023-09-08T09:57:51;26.90;53.70
6540;DHT22;50344;51.142;16.892;2023-09-08T10:00:18;26.90;53.90
6540;DHT22;50344;51.142;16.892;2023-09-08T10:02:44;27.00;53.70
6540;DHT22;50344;51.142;16.892;2023-09-08T10:05:11;27.00;53.80
6540;DHT22;50344;51.142;16.892;2023-09-08T10:07:40;27.00;53.70
6540;DHT22;50344;51.142;16.892;2023-09-08T10:10:06;27.00;53.80
6540;DHT22;50344;51.142;16.892;2023-09-08T10:12:31;27.00;53.50
6540;DHT22;50344;51.142;16.892;2023-09-08T10:14:58;27.00;53.60
6540;DHT22;50344;51.142;16.892;2023-09-08T10:17:24;27.10;53.50
6540;DHT22;50344;51.142;16.892;2023-09-08T10:19:53;27.10;53.30
6540;DHT22;50344;51.142;16.892;2023-09-08T10:22:22;27.10;53.40
6540;DHT22;50344;51.142;16.892;2023-09-08T10:24:52;27.10;53.40
6540;DHT22;50344;51.142;16.892;2023-09-08T10:27:19;27.10;53.30
6540;DHT22;50344;51.142;16.892;2023-09-08T10:29:46;27.20;53.20
6540;DHT22;50344;51.142;16.892;2023-09-08T10:32:12;27.20;53.20
6540;DHT22;50344;51.142;16.892;2023-09-08T10:34:38;27.20;53.10
6540;DHT22;50344;51.142;16.892;2023-09-08T10:37:18;27.20;52.80
6540;DHT22;50344;51.142;16.892;2023-09-08T10:39:44;27.20;52.70
6540;DHT22;50344;51.142;16.892;2023-09-08T10:49:45;27.30;52.20
6540;DHT22;50344;51.142;16.892;2023-09-08T10:52:12;27.30;52.60
6540;DHT22;50344;51.142;16.892;2023-09-08T10:54:53;27.30;52.50
6540;DHT22;50344;51.142;16.892;2023-09-08T10:57:25;27.40;51.90
6540;DHT22;50344;51.142;16.892;2023-09-08T10:59:51;27.30;51.70
6540;DHT22;50344;51.142;16.892;2023-09-08T11:05:00;27.40;51.50
6540;DHT22;50344;51.142;16.892;2023-09-08T11:07:25;27.40;51.70
6540;DHT22;50344;51.142;16.892;2023-09-08T11:09:51;27.40;51.70
6540;DHT22;50344;51.142;16.892;2023-09-08T11:12:17;27.50;51.90
6540;DHT22;50344;51.142;16.892;2023-09-08T11:14:43;27.40;51.80
6540;DHT22;50344;51.142;16.892;2023-09-08T11:17:08;27.50;52.40
6540;DHT22;50344;51.142;16.892;2023-09-08T11:19:46;27.60;52.10
6540;DHT22;50344;51.142;16.892;2023-09-08T11:22:13;27.50;51.50
6540;DHT22;50344;51.142;16.892;2023-09-08T11:24:40;27.50;51.70
6540;DHT22;50344;51.142;16.892;2023-09-08T11:27:06;27.60;51.80
6540;DHT22;50344;51.142;16.892;2023-09-08T11:29:32;27.60;51.60
6540;DHT22;50344;51.142;16.892;2023-09-08T11:31:58;27.60;51.30
6540;DHT22;50344;51.142;16.892;2023-09-08T11:34:23;27.60;51.20
6540;DHT22;50344;51.142;16.892;2023-09-08T11:36:49;27.60;50.80
6540;DHT22;50344;51.142;16.892;2023-09-08T11:39:14;27.70;50.90
6540;DHT22;50344;51.142;16.892;2023-09-08T11:41:41;27.70;50.70
6540;DHT22;50344;51.142;16.892;2023-09-08T11:44:06;27.70;50.40
6540;DHT22;50344;51.142;16.892;2023-09-08T11:46:32;27.70;50.50
6540;DHT22;50344;51.142;16.892;2023-09-08T11:48:57;27.80;50.60
6540;DHT22;50344;51.142;16.892;2023-09-08T11:51:23;27.90;50.60
6540;DHT22;50344;51.142;16.892;2023-09-08T11:53:49;27.80;50.40
6540;DHT22;50344;51.142;16.892;2023-09-08T11:56:15;27.80;49.80
6540;DHT22;50344;51.142;16.892;2023-09-08T11:58:41;27.90;50.40
6540;DHT22;50344;51.142;16.892;2023-09-08T12:01:07;27.80;50.00
6540;DHT22;50344;51.142;16.892;2023-09-08T12:03:33;27.80;50.10
6540;DHT22;50344;51.142;16.892;2023-09-08T12:05:58;27.80;50.40
6540;DHT22;50344;51.142;16.892;2023-09-08T12:08:25;27.90;50.00
6540;DHT22;50344;51.142;16.892;2023-09-08T12:10:53;27.90;50.10
6540;DHT22;50344;51.142;16.892;2023-09-08T12:13:22;27.90;49.90
6540;DHT22;50344;51.142;16.892;2023-09-08T12:15:48;27.90;49.20
6540;DHT22;50344;51.142;16.892;2023-09-08T12:18:14;27.90;48.80
6540;DHT22;50344;51.142;16.892;2023-09-08T12:20:43;28.50;49.00
6540;DHT22;50344;51.142;16.892;2023-09-08T12:23:18;28.50;49.10
6540;DHT22;50344;51.142;16.892;2023-09-08T12:25:45;27.90;48.50
6540;DHT22;50344;51.142;16.892;2023-09-08T12:28:10;27.90;49.00
6540;DHT22;50344;51.142;16.892;2023-09-08T12:30:36;28.00;49.10
6540;DHT22;50344;51.142;16.892;2023-09-08T12:33:01;28.00;48.70
6540;DHT22;50344;51.142;16.892;2023-09-08T12:35:27;28.00;48.70
6540;DHT22;50344;51.142;16.892;2023-09-08T12:38:01;28.00;48.40
6540;DHT22;50344;51.142;16.892;2023-09-08T12:40:27;28.00;48.10
6540;DHT22;50344;51.142;16.892;2023-09-08T12:42:53;28.00;48.70
6540;DHT22;50344;51.142;16.892;2023-09-08T12:45:20;27.90;48.60
6540;DHT22;50344;51.142;16.892;2023-09-08T12:47:46;28.00;48.30
6540;DHT22;50344;51.142;16.892;2023-09-08T12:50:11;28.00;48.80
6540;DHT22;50344;51.142;16.892;2023-09-08T12:52:38;28.20;48.50
6540;DHT22;50344;51.142;16.892;2023-09-08T12:55:04;28.10;47.90
6540;DHT22;50344;51.142;16.892;2023-09-08T12:57:30;28.10;48.00
6540;DHT22;50344;51.142;16.892;2023-09-08T12:59:55;28.10;47.50
6540;DHT22;50344;51.142;16.892;2023-09-08T13:02:21;28.10;47.50
6540;DHT22;50344;51.142;16.892;2023-09-08T13:04:47;28.10;47.30
6540;DHT22;50344;51.142;16.892;2023-09-08T13:07:14;28.10;47.30
6540;DHT22;50344;51.142;16.892;2023-09-08T13:09:40;28.10;47.20
6540;DHT22;50344;51.142;16.892;2023-09-08T13:12:05;28.10;46.60
6540;DHT22;50344;51.142;16.892;2023-09-08T13:14:31;28.10;47.10
6540;DHT22;50344;51.142;16.892;2023-09-08T13:16:56;28.10;46.80
6540;DHT22;50344;51.142;16.892;2023-09-08T13:19:22;28.10;46.90
6540;DHT22;50344;51.142;16.892;2023-09-08T13:21:47;28.10;47.00
6540;DHT22;50344;51.142;16.892;2023-09-08T13:24:13;28.10;46.30
6540;DHT22;50344;51.142;16.892;2023-09-08T13:26:39;28.20;46.40
6540;DHT22;50344;51.142;16.892;2023-09-08T13:29:04;28.10;46.30
6540;DHT22;50344;51.142;16.892;2023-09-08T13:31:30;28.10;45.90
6540;DHT22;50344;51.142;16.892;2023-09-08T13:33:55;28.10;46.30
6540;DHT22;50344;51.142;16.892;2023-09-08T13:36:21;28.10;46.60
6540;DHT22;50344;51.142;16.892;2023-09-08T13:38:46;28.10;46.70
6540;DHT22;50344;51.142;16.892;2023-09-08T13:41:12;28.00;46.50
6540;DHT22;50344;51.142;16.892;2023-09-08T13:43:37;28.10;46.70
6540;DHT22;50344;51.142;16.892;2023-09-08T13:46:03;28.10;46.80
6540;DHT22;50344;51.142;16.892;2023-09-08T13:48:28;28.10;46.70
6540;DHT22;50344;51.142;16.892;2023-09-08T13:50:54;28.00;46.70
6540;DHT22;50344;51.142;16.892;2023-09-08T13:53:21;28.00;46.80
6540;DHT22;50344;51.142;16.892;2023-09-08T13:55:46;28.00;47.30
6540;DHT22;50344;51.142;16.892;2023-09-08T13:58:13;28.00;47.20
6540;DHT22;50344;51.142;16.892;2023-09-08T14:00:38;28.00;47.40
6540;DHT22;50344;51.142;16.892;2023-09-08T14:03:04;28.00;47.50
6540;DHT22;50344;51.142;16.892;2023-09-08T14:05:30;28.00;47.70
6540;DHT22;50344;51.142;16.892;2023-09-08T14:07:55;28.00;47.40
6540;DHT22;50344;51.142;16.892;2023-09-08T14:10:21;28.00;47.40
6540;DHT22;50344;51.142;16.892;2023-09-08T14:12:46;28.00;47.40
6540;DHT22;50344;51.142;16.892;2023-09-08T14:15:12;27.90;47.30
6540;DHT22;50344;51.142;16.892;2023-09-08T14:17:40;28.00;47.40
6540;DHT22;50344;51.142;16.892;2023-09-08T14:20:06;27.90;47.40
6540;DHT22;50344;51.142;16.892;2023-09-08T14:22:33;28.00;47.40
6540;DHT22;50344;51.142;16.892;2023-09-08T14:24:58;28.00;47.40
6540;DHT22;50344;51.142;16.892;2023-09-08T14:27:24;27.90;47.30
6540;DHT22;50344;51.142;16.892;2023-09-08T14:29:49;27.90;47.30
6540;DHT22;50344;51.142;16.892;2023-09-08T14:32:15;27.90;47.40
6540;DHT22;50344;51.142;16.892;2023-09-08T14:34:40;27.90;47.30
6540;DHT22;50344;51.142;16.892;2023-09-08T14:37:06;28.00;47.60
6540;DHT22;50344;51.142;16.892;2023-09-08T14:39:33;27.90;47.40
6540;DHT22;50344;51.142;16.892;2023-09-08T14:41:58;27.90;47.30
6540;DHT22;50344;51.142;16.892;2023-09-08T14:44:24;27.90;47.40
6540;DHT22;50344;51.142;16.892;2023-09-08T14:46:50;27.90;47.30
6540;DHT22;50344;51.142;16.892;2023-09-08T14:49:15;27.90;47.20
6540;DHT22;50344;51.142;16.892;2023-09-08T14:51:41;27.80;47.30
6540;DHT22;50344;51.142;16.892;2023-09-08T14:54:07;27.90;47.40
6540;DHT22;50344;51.142;16.892;2023-09-08T14:56:32;27.90;50.10
6540;DHT22;50344;51.142;16.892;2023-09-08T14:58:58;27.90;52.10
6540;DHT22;50344;51.142;16.892;2023-09-08T15:01:25;27.90;54.30
6540;DHT22;50344;51.142;16.892;2023-09-08T15:03:51;27.90;54.90
6540;DHT22;50344;51.142;16.892;2023-09-08T15:06:16;27.90;55.70
6540;DHT22;50344;51.142;16.892;2023-09-08T15:08:42;27.90;56.50
6540;DHT22;50344;51.142;16.892;2023-09-08T15:11:09;27.90;57.60
6540;DHT22;50344;51.142;16.892;2023-09-08T15:13:35;27.90;57.10
6540;DHT22;50344;51.142;16.892;2023-09-08T15:16:01;27.90;57.10
6540;DHT22;50344;51.142;16.892;2023-09-08T15:18:26;27.80;57.10
6540;DHT22;50344;51.142;16.892;2023-09-08T15:20:55;27.80;57.00
6540;DHT22;50344;51.142;16.892;2023-09-08T15:23:21;27.80;56.90
6540;DHT22;50344;51.142;16.892;2023-09-08T15:25:55;27.80;56.90
6540;DHT22;50344;51.142;16.892;2023-09-08T15:28:21;27.80;56.90
6540;DHT22;50344;51.142;16.892;2023-09-08T15:30:48;27.70;56.80
6540;DHT22;50344;51.142;16.892;2023-09-08T15:33:14;27.70;56.60
6540;DHT22;50344;51.142;16.892;2023-09-08T15:35:41;27.80;56.40
6540;DHT22;50344;51.142;16.892;2023-09-08T15:38:07;27.70;56.00
6540;DHT22;50344;51.142;16.892;2023-09-08T15:40:33;27.70;55.50